Puvirnituq Airport
CYPX : now visible

Airfield :











YOU CAN JOIN US ON...

 
LOGIN :

Register | Disclaimer

   EN    FR    IT 

 









Legend :    VFR   Marginal VFR   IFR   Intensive IFR   Very Intensive IFR
Visi :
Ceiling :
>= 8 km
>= 3000ft
5 to 8 km
1000 to 3000 ft
1500m to 5 km
500 to 1000 ft
800 to 1500m
200 to 500 ft
< 800m
< 200 ft
Symbols :   Thunderstorms  Fog  Heavy snow  Heavy precipitations  Wind > 20 kt






- Airport Elevation : 74 ft
- IATA code : YPX


CYPX - Puvirnituq

CURRENT METAR :
  • 080719Z AUTO 03022KT 1SM -SN BLSN OVC025 M19/M21 A2927 RMK SLP918

EXPIRED METARs :
  • 080700Z AUTO 04022G27KT 1 1/4SM -SN BLSN OVC021 M19/M21 A2926 RMK SLP914
  • 080600Z AUTO 03021KT 1 1/2SM -SN OVC019 M19/M21 A2923 RMK SLP903
  • 080508Z AUTO 03022G27KT 1SM -SN BLSN VV014 M19/M21 A2920 RMK SLP893

TAF TAF CYPX
Valid from the 08 at 06:00 until the 08 at 18:00 UTC


080540Z 0806/0818 03022G32KT 3/4SM -SN BLSN VV012
TEMPO 0806/0812 3SM -SN BLSN OVC020
FM081200 01020G30KT 4SM -SN BLSN SCT015 BKN030 OVC060
TEMPO 0812/0816 1SM -SN BLSN BKN015 OVC030
FM081600 34018KT 6SM BLSN FEW050
TEMPO 0816/0818 2SM BLSN RMK FCST BASED ON AUTO OBS. NXT FCST BY 081200Z
CZUL FIR / North America



MET'MAP, your aeronautical weather chart ! - Copyright ORBIFLY December 2007 - Disclaimer

ORBIFLY MET'MAP TEAM :

Programming & Development : Alexandra Zaïnal
Original concept : Baudouin d'Aumeries
Technical & hardware support : Manuel Goepfert
Assistance : Marc-Olivier Méhu




SOURCES & CREDITS :

   NOAA       Earth
Advisory